Time,TemperatureF,DewpointF,PressureIn,WindDirection,WindDirectionDegrees,WindSpeedMPH,WindSpeedGustMPH,Humidity,HourlyPrecipIn,Conditions,Clouds,dailyrainin,SoftwareType,DateUTC
2013-05-08 00:02:00,70.0,61.0,30.04,West,281,3.0,4.0,73,0.00,,,0.20,,2013-05-08 04:02:00,
2013-05-08 00:13:00,70.0,61.0,30.04,West,281,3.0,4.0,73,0.00,,,0.20,,2013-05-08 04:13:00,
2013-05-08 00:23:00,70.0,61.0,30.04,NW,308,2.0,3.0,74,0.00,,,0.00,,2013-05-08 04:23:00,
2013-05-08 00:33:00,69.0,61.0,30.04,West,274,3.0,3.0,75,0.00,,,0.00,,2013-05-08 04:33:00,
2013-05-08 00:43:00,69.0,61.0,30.04,West,274,3.0,3.0,75,0.00,,,0.00,,2013-05-08 04:43:00,
2013-05-08 00:53:00,69.0,61.0,30.05,WNW,300,4.0,4.0,75,0.00,,,0.00,,2013-05-08 04:53:00,
2013-05-08 01:02:00,68.0,60.0,30.05,WNW,298,3.0,3.0,76,0.00,,,0.00,,2013-05-08 05:02:00,
2013-05-08 01:12:00,68.0,60.0,30.05,WNW,298,3.0,3.0,76,0.00,,,0.00,,2013-05-08 05:12:00,
2013-05-08 01:22:00,68.0,61.0,30.05,WNW,295,4.0,4.0,77,0.00,,,0.00,,2013-05-08 05:22:00,
2013-05-08 01:32:00,68.0,61.0,30.04,West,263,3.0,0.0,78,0.00,,,0.00,,2013-05-08 05:32:00,
2013-05-08 01:42:00,68.0,61.0,30.04,West,263,3.0,0.0,78,0.00,,,0.00,,2013-05-08 05:42:00,
2013-05-08 01:52:00,67.0,60.0,30.03,WNW,302,4.0,4.0,79,0.00,,,0.00,,2013-05-08 05:52:00,
2013-05-08 02:02:00,67.0,61.0,30.03,West,277,2.0,3.0,80,0.00,,,0.00,,2013-05-08 06:02:00,
2013-05-08 02:12:00,67.0,61.0,30.03,West,277,2.0,3.0,80,0.00,,,0.00,,2013-05-08 06:12:00,
2013-05-08 02:21:00,67.0,61.0,30.03,WSW,252,2.0,2.0,81,0.00,,,0.00,,2013-05-08 06:21:00,
2013-05-08 02:32:00,66.0,60.0,30.03,West,280,4.0,4.0,82,0.00,,,0.00,,2013-05-08 06:32:00,
2013-05-08 02:42:00,66.0,60.0,30.03,West,280,4.0,4.0,82,0.00,,,0.00,,2013-05-08 06:42:00,
2013-05-08 02:52:00,66.0,60.0,30.02,NNW,329,3.0,3.0,82,0.00,,,0.00,,2013-05-08 06:52:00,
2013-05-08 03:02:00,66.0,60.0,30.02,WNW,301,4.0,4.0,82,0.00,,,0.00,,2013-05-08 07:02:00,
2013-05-08 03:11:00,66.0,60.0,30.02,WNW,301,4.0,4.0,82,0.00,,,0.00,,2013-05-08 07:11:00,
2013-05-08 03:22:00,66.0,61.0,30.02,WNW,284,4.0,4.0,83,0.00,,,0.00,,2013-05-08 07:22:00,
2013-05-08 03:32:00,65.0,60.0,30.02,NW,308,3.0,3.0,84,0.00,,,0.00,,2013-05-08 07:32:00,
2013-05-08 03:42:00,65.0,60.0,30.02,NW,308,3.0,3.0,84,0.00,,,0.00,,2013-05-08 07:42:00,
2013-05-08 03:52:00,65.0,60.0,30.02,WNW,300,3.0,3.0,84,0.00,,,0.00,,2013-05-08 07:52:00,
2013-05-08 04:02:00,65.0,60.0,30.03,WNW,291,3.0,4.0,84,0.00,,,0.00,,2013-05-08 08:02:00,
2013-05-08 04:12:00,65.0,60.0,30.03,WNW,291,3.0,4.0,84,0.00,,,0.00,,2013-05-08 08:12:00,
2013-05-08 04:21:00,65.0,61.0,30.03,WSW,240,0.0,0.0,86,0.00,,,0.00,,2013-05-08 08:21:00,
2013-05-08 04:32:00,65.0,61.0,30.03,West,271,0.0,0.0,87,0.00,,,0.00,,2013-05-08 08:32:00,
2013-05-08 04:42:00,65.0,61.0,30.03,West,271,0.0,0.0,87,0.00,,,0.00,,2013-05-08 08:42:00,
2013-05-08 04:52:00,64.0,61.0,30.03,NW,304,3.0,3.0,89,0.00,,,0.00,,2013-05-08 08:52:00,
2013-05-08 05:02:00,64.0,61.0,30.03,West,281,2.0,2.0,89,0.00,,,0.00,,2013-05-08 09:02:00,
2013-05-08 05:11:00,64.0,61.0,30.03,West,281,2.0,2.0,89,0.00,,,0.00,,2013-05-08 09:11:00,
2013-05-08 05:21:00,64.0,61.0,30.03,NW,305,0.0,0.0,89,0.00,,,0.00,,2013-05-08 09:21:00,
2013-05-08 05:32:00,64.0,61.0,30.04,West,270,2.0,0.0,89,0.00,,,0.00,,2013-05-08 09:32:00,
2013-05-08 05:42:00,64.0,61.0,30.04,West,270,2.0,0.0,89,0.00,,,0.00,,2013-05-08 09:42:00,
2013-05-08 05:53:00,64.0,61.0,30.05,West,263,0.0,0.0,89,0.00,,,0.00,,2013-05-08 09:53:00,
2013-05-08 06:02:00,64.0,61.0,30.05,West,266,0.0,0.0,90,0.00,,,0.00,,2013-05-08 10:02:00,
2013-05-08 06:12:00,64.0,61.0,30.05,West,266,0.0,0.0,90,0.00,,,0.00,,2013-05-08 10:12:00,
2013-05-08 06:22:00,64.0,61.0,30.05,WSW,239,0.0,0.0,90,0.00,,,0.00,,2013-05-08 10:22:00,
2013-05-08 06:33:00,64.0,61.0,30.05,WNW,297,2.0,0.0,90,0.00,,,0.00,,2013-05-08 10:33:00,
2013-05-08 06:42:00,64.0,61.0,30.05,WNW,297,2.0,0.0,90,0.00,,,0.00,,2013-05-08 10:42:00,
2013-05-08 06:53:00,64.0,61.0,30.06,WNW,285,0.0,0.0,91,0.00,,,0.00,,2013-05-08 10:53:00,
2013-05-08 07:02:00,63.0,61.0,30.06,WNW,290,0.0,0.0,92,0.00,,,0.00,,2013-05-08 11:02:00,
2013-05-08 07:11:00,63.0,61.0,30.06,WNW,290,0.0,0.0,92,0.00,,,0.00,,2013-05-08 11:11:00,
2013-05-08 07:22:00,63.0,61.0,30.07,West,270,0.0,0.0,93,0.00,,,0.00,,2013-05-08 11:22:00,
2013-05-08 07:32:00,64.0,62.0,30.07,WNW,294,2.0,3.0,92,0.00,,,0.00,,2013-05-08 11:32:00,
2013-05-08 07:42:00,64.0,62.0,30.07,WNW,294,2.0,3.0,92,0.00,,,0.00,,2013-05-08 11:42:00,
2013-05-08 07:52:00,65.0,62.0,30.07,WNW,300,0.0,3.0,90,0.00,,,0.00,,2013-05-08 11:52:00,
2013-05-08 08:01:00,66.0,62.0,30.08,WNW,284,1.0,2.0,88,0.00,,,0.00,,2013-05-08 12:01:00,
2013-05-08 08:11:00,66.0,62.0,30.08,WNW,284,1.0,2.0,88,0.00,,,0.00,,2013-05-08 12:11:00,
2013-05-08 08:21:00,67.0,63.0,30.09,West,274,3.0,3.0,86,0.00,,,0.00,,2013-05-08 12:21:00,
2013-05-08 08:32:00,68.0,63.0,30.09,WNW,301,3.0,3.0,85,0.00,,,0.00,,2013-05-08 12:32:00,
2013-05-08 08:42:00,68.0,63.0,30.09,WNW,301,3.0,3.0,85,0.00,,,0.00,,2013-05-08 12:42:00,
2013-05-08 08:52:00,69.0,63.0,30.10,West,278,2.0,4.0,82,0.00,,,0.00,,2013-05-08 12:52:00,
2013-05-08 09:01:00,70.0,63.0,30.10,SW,224,4.0,4.0,79,0.00,,,0.00,,2013-05-08 13:01:00,
2013-05-08 09:11:00,70.0,63.0,30.10,SW,224,4.0,4.0,79,0.00,,,0.00,,2013-05-08 13:11:00,
2013-05-08 09:21:00,71.0,63.0,30.10,WNW,287,3.0,3.0,77,0.00,,,0.00,,2013-05-08 13:21:00,
2013-05-08 09:32:00,72.0,63.0,30.10,NW,311,2.0,2.0,74,0.00,,,0.00,,2013-05-08 13:32:00,
2013-05-08 09:42:00,72.0,63.0,30.10,NW,311,2.0,2.0,74,0.00,,,0.00,,2013-05-08 13:42:00,
2013-05-08 09:52:00,73.0,63.0,30.11,NW,316,1.0,3.0,72,0.00,,,0.00,,2013-05-08 13:52:00,
2013-05-08 10:02:00,74.0,62.0,30.11,West,276,2.0,3.0,66,0.00,,,0.00,,2013-05-08 14:02:00,
2013-05-08 10:11:00,74.0,62.0,30.11,West,276,2.0,3.0,66,0.00,,,0.00,,2013-05-08 14:11:00,
2013-05-08 10:21:00,75.0,62.0,30.11,NW,323,2.0,0.0,63,0.00,,,0.00,,2013-05-08 14:21:00,
2013-05-08 10:32:00,75.0,61.0,30.11,WNW,300,3.0,6.0,62,0.00,,,0.00,,2013-05-08 14:32:00,
2013-05-08 10:42:00,75.0,61.0,30.11,WNW,300,3.0,6.0,62,0.00,,,0.00,,2013-05-08 14:42:00,
2013-05-08 10:52:00,75.0,61.0,30.11,NW,304,3.0,5.0,62,0.00,,,0.00,,2013-05-08 14:52:00,
2013-05-08 11:02:00,76.0,60.0,30.11,WNW,291,4.0,4.0,58,0.00,,,0.00,,2013-05-08 15:02:00,
2013-05-08 11:11:00,76.0,60.0,30.11,WNW,291,4.0,4.0,58,0.00,,,0.00,,2013-05-08 15:11:00,
2013-05-08 11:21:00,77.0,57.0,30.11,West,264,3.0,3.0,51,0.00,,,0.00,,2013-05-08 15:21:00,
2013-05-08 11:33:00,77.0,58.0,30.11,SSW,201,6.0,6.0,52,0.00,,,0.00,,2013-05-08 15:33:00,
2013-05-08 11:42:00,77.0,58.0,30.11,SSW,201,6.0,6.0,52,0.00,,,0.00,,2013-05-08 15:42:00,
2013-05-08 11:53:00,78.0,58.0,30.11,South,190,4.0,0.0,51,0.00,,,0.00,,2013-05-08 15:53:00,
2013-05-08 12:03:00,79.0,55.0,30.11,SSW,195,6.0,7.0,43,0.00,,,0.00,,2013-05-08 16:03:00,
2013-05-08 12:12:00,79.0,55.0,30.11,SSW,195,6.0,7.0,43,0.00,,,0.00,,2013-05-08 16:12:00,
2013-05-08 12:23:00,78.0,56.0,30.10,West,278,4.0,7.0,47,0.00,,,0.00,,2013-05-08 16:23:00,
2013-05-08 12:33:00,80.0,57.0,30.10,West,259,5.0,5.0,46,0.00,,,0.00,,2013-05-08 16:33:00,
2013-05-08 12:42:00,80.0,57.0,30.10,West,259,5.0,5.0,46,0.00,,,0.00,,2013-05-08 16:42:00,
2013-05-08 12:52:00,80.0,55.0,30.10,West,262,6.0,6.0,43,0.00,,,0.00,,2013-05-08 16:52:00,
2013-05-08 13:02:00,80.0,55.0,30.10,WSW,249,4.0,7.0,43,0.00,,,0.00,,2013-05-08 17:02:00,
2013-05-08 13:12:00,80.0,55.0,30.10,WSW,249,4.0,7.0,43,0.00,,,0.00,,2013-05-08 17:12:00,
2013-05-08 13:22:00,81.0,54.0,30.09,WSW,239,5.0,5.0,39,0.00,,,0.00,,2013-05-08 17:22:00,
2013-05-08 13:32:00,81.0,54.0,30.09,WSW,239,5.0,5.0,39,0.00,,,0.00,,2013-05-08 17:32:00,
2013-05-08 13:41:00,81.0,54.0,30.09,WSW,239,5.0,5.0,39,0.00,,,0.00,,2013-05-08 17:41:00,
2013-05-08 13:52:00,82.0,56.0,30.09,NW,307,3.0,3.0,41,0.00,,,0.00,,2013-05-08 17:52:00,
2013-05-08 14:02:00,83.0,57.0,30.08,SW,236,4.0,4.0,41,0.00,,,0.00,,2013-05-08 18:02:00,
2013-05-08 14:12:00,83.0,57.0,30.08,SW,236,4.0,4.0,41,0.00,,,0.00,,2013-05-08 18:12:00,
2013-05-08 14:21:00,83.0,56.0,30.08,WSW,250,4.0,4.0,40,0.00,,,0.00,,2013-05-08 18:21:00,
2013-05-08 14:32:00,83.0,55.0,30.08,WSW,246,4.0,4.0,39,0.00,,,0.00,,2013-05-08 18:32:00,
2013-05-08 14:42:00,84.0,55.0,30.07,SW,218,4.0,6.0,37,0.00,,,0.00,,2013-05-08 18:42:00,
2013-05-08 14:52:00,84.0,55.0,30.07,SW,218,4.0,6.0,37,0.00,,,0.00,,2013-05-08 18:52:00,
2013-05-08 15:01:00,83.0,52.0,30.07,NE,35,5.0,5.0,34,0.00,,,0.00,,2013-05-08 19:01:00,
2013-05-08 15:11:00,83.0,52.0,30.07,NE,35,5.0,5.0,34,0.00,,,0.00,,2013-05-08 19:11:00,
2013-05-08 15:22:00,83.0,60.0,30.06,SE,124,4.0,4.0,46,0.00,,,0.00,,2013-05-08 19:22:00,
2013-05-08 15:32:00,83.0,62.0,30.06,SE,124,6.0,6.0,50,0.00,,,0.00,,2013-05-08 19:32:00,
2013-05-08 15:42:00,83.0,62.0,30.06,SE,124,6.0,6.0,50,0.00,,,0.00,,2013-05-08 19:42:00,
2013-05-08 15:52:00,82.0,61.0,30.06,SE,139,6.0,6.0,49,0.00,,,0.00,,2013-05-08 19:52:00,
2013-05-08 16:02:00,83.0,59.0,30.05,SW,231,5.0,5.0,44,0.00,,,0.00,,2013-05-08 20:02:00,
2013-05-08 16:11:00,83.0,59.0,30.05,SW,231,5.0,5.0,44,0.00,,,0.00,,2013-05-08 20:11:00,
2013-05-08 16:22:00,82.0,61.0,30.05,SW,233,4.0,4.0,50,0.00,,,0.00,,2013-05-08 20:22:00,
2013-05-08 16:32:00,83.0,61.0,30.05,WSW,248,3.0,3.0,48,0.00,,,0.00,,2013-05-08 20:32:00,
2013-05-08 16:42:00,83.0,59.0,30.05,SW,219,5.0,5.0,44,0.00,,,0.00,,2013-05-08 20:42:00,
2013-05-08 16:52:00,83.0,59.0,30.05,SW,219,5.0,5.0,44,0.00,,,0.00,,2013-05-08 20:52:00,
2013-05-08 17:01:00,84.0,62.0,30.05,West,263,4.0,4.0,48,0.00,,,0.00,,2013-05-08 21:01:00,
2013-05-08 17:12:00,84.0,62.0,30.04,SSE,149,5.0,6.0,48,0.00,,,0.00,,2013-05-08 21:12:00,
2013-05-08 17:21:00,84.0,62.0,30.04,SSE,149,5.0,6.0,48,0.00,,,0.00,,2013-05-08 21:21:00,
2013-05-08 17:33:00,84.0,56.0,30.04,SSW,203,2.0,5.0,38,0.00,,,0.00,,2013-05-08 21:33:00,
2013-05-08 17:43:00,84.0,62.0,30.04,NW,315,5.0,6.0,48,0.00,,,0.00,,2013-05-08 21:43:00,
2013-05-08 17:53:00,84.0,62.0,30.04,NW,315,5.0,6.0,48,0.00,,,0.00,,2013-05-08 21:53:00,
2013-05-08 18:03:00,82.0,63.0,30.04,SW,217,3.0,4.0,52,0.00,,,0.00,,2013-05-08 22:03:00,
2013-05-08 18:12:00,82.0,63.0,30.04,ESE,108,4.0,4.0,52,0.00,,,0.00,,2013-05-08 22:12:00,
2013-05-08 18:22:00,82.0,63.0,30.04,ESE,108,4.0,4.0,52,0.00,,,0.00,,2013-05-08 22:22:00,
2013-05-08 18:33:00,82.0,63.0,30.04,SSE,160,2.0,3.0,53,0.00,,,0.00,,2013-05-08 22:33:00,
2013-05-08 18:42:00,81.0,64.0,30.04,South,180,5.0,5.0,56,0.00,,,0.00,,2013-05-08 22:42:00,
2013-05-08 18:53:00,81.0,64.0,30.04,South,180,5.0,5.0,56,0.00,,,0.00,,2013-05-08 22:53:00,
2013-05-08 19:01:00,81.0,63.0,30.04,ESE,103,4.0,4.0,55,0.00,,,0.00,,2013-05-08 23:01:00,
2013-05-08 19:11:00,81.0,63.0,30.04,SW,215,2.0,5.0,55,0.00,,,0.00,,2013-05-08 23:11:00,
2013-05-08 19:22:00,81.0,63.0,30.04,SW,215,2.0,5.0,55,0.00,,,0.00,,2013-05-08 23:22:00,
2013-05-08 19:32:00,80.0,63.0,30.04,SE,129,2.0,4.0,57,0.00,,,0.00,,2013-05-08 23:32:00,
2013-05-08 19:42:00,79.0,62.0,30.04,ESE,121,4.0,4.0,57,0.00,,,0.00,,2013-05-08 23:42:00,
2013-05-08 19:52:00,79.0,62.0,30.04,ESE,121,4.0,4.0,57,0.00,,,0.00,,2013-05-08 23:52:00,
2013-05-08 20:02:00,79.0,63.0,30.04,SSW,211,1.0,2.0,58,0.00,,,0.00,,2013-05-09 00:02:00,
2013-05-08 20:12:00,79.0,63.0,30.05,SSW,197,3.0,3.0,59,0.00,,,0.00,,2013-05-09 00:12:00,
2013-05-08 20:21:00,79.0,63.0,30.05,SSW,197,3.0,3.0,59,0.00,,,0.00,,2013-05-09 00:21:00,
2013-05-08 20:32:00,78.0,64.0,30.05,SSE,148,1.0,1.0,62,0.00,,,0.00,,2013-05-09 00:32:00,
2013-05-08 20:42:00,78.0,64.0,30.06,SSW,203,2.0,2.0,62,0.00,,,0.00,,2013-05-09 00:42:00,
2013-05-08 20:52:00,78.0,64.0,30.06,SSW,203,2.0,2.0,62,0.00,,,0.00,,2013-05-09 00:52:00,
2013-05-08 21:01:00,78.0,65.0,30.06,SW,231,2.0,5.0,64,0.00,,,0.00,,2013-05-09 01:01:00,
2013-05-08 21:12:00,78.0,65.0,30.06,SSE,160,2.0,2.0,65,0.00,,,0.00,,2013-05-09 01:12:00,
2013-05-08 21:22:00,78.0,65.0,30.06,SSE,160,2.0,2.0,65,0.00,,,0.00,,2013-05-09 01:22:00,
2013-05-08 21:32:00,78.0,65.0,30.07,South,191,1.0,1.0,65,0.00,,,0.00,,2013-05-09 01:32:00,
2013-05-08 21:42:00,78.0,66.0,30.08,SSW,193,0.0,3.0,66,0.00,,,0.00,,2013-05-09 01:42:00,
2013-05-08 21:52:00,78.0,66.0,30.08,SSW,193,0.0,3.0,66,0.00,,,0.00,,2013-05-09 01:52:00,
2013-05-08 22:02:00,77.0,65.0,30.09,ESE,117,0.0,0.0,67,0.00,,,0.00,,2013-05-09 02:02:00,
2013-05-08 22:12:00,76.0,65.0,30.09,West,259,0.0,0.0,69,0.00,,,0.00,,2013-05-09 02:12:00,
2013-05-08 22:22:00,76.0,65.0,30.09,West,259,0.0,0.0,69,0.00,,,0.00,,2013-05-09 02:22:00,
2013-05-08 22:33:00,76.0,66.0,30.09,SW,232,2.0,2.0,71,0.00,,,0.00,,2013-05-09 02:33:00,
2013-05-08 22:42:00,76.0,66.0,30.09,SW,232,2.0,2.0,71,0.00,,,0.00,,2013-05-09 02:42:00,
2013-05-08 22:52:00,76.0,66.0,30.09,SW,232,2.0,2.0,71,0.00,,,0.00,,2013-05-09 02:52:00,
2013-05-08 23:01:00,75.0,65.0,30.11,SW,224,1.0,0.0,72,0.00,,,0.00,,2013-05-09 03:01:00,
2013-05-08 23:11:00,75.0,66.0,30.11,WSW,250,1.0,1.0,73,0.00,,,0.00,,2013-05-09 03:11:00,
2013-05-08 23:21:00,75.0,66.0,30.11,WSW,250,1.0,1.0,73,0.00,,,0.00,,2013-05-09 03:21:00,
2013-05-08 23:33:00,74.0,64.0,30.11,West,264,0.0,0.0,70,0.00,,,0.00,,2013-05-09 03:33:00,
2013-05-08 23:43:00,74.0,62.0,30.11,West,260,0.0,0.0,67,0.00,,,0.00,,2013-05-09 03:43:00,
2013-05-08 23:53:00,74.0,62.0,30.11,West,260,0.0,0.0,67,0.00,,,0.00,,2013-05-09 03:53:00,